Time;durP1;ratioP1;P1;durP2;ratioP2;P2;SDS_P1;SDS_P2;PMS_P1;PMS_P2;Temp;Humidity;BMP_temperature;BMP_pressure;BME280_temperature;BME280_humidity;BME280_pressure;Samples;Min_cycle;Max_cycle;Signal;HPM_P1;HPM_P2
2022/03/05 00:01:43;;;;;;;43.23;17.63;;;0.60;1.00;;;;;;4390618;28;659054;-71
2022/03/05 00:04:31;;;;;;;35.53;16.03;;;0.50;1.00;;;;;;4378414;28;658875;-71
2022/03/05 00:07:20;;;;;;;42.13;17.23;;;0.50;1.00;;;;;;4396940;28;660248;-71
2022/03/05 00:10:09;;;;;;;37.17;16.40;;;0.50;1.00;;;;;;4374616;28;659630;-71
2022/03/05 00:12:56;;;;;;;44.93;17.57;;;0.50;1.00;;;;;;4378442;28;658498;-71
2022/03/05 00:15:44;;;;;;;53.73;19.60;;;0.50;1.00;;;;;;4396324;28;658852;-71
2022/03/05 00:18:31;;;;;;;39.80;16.70;;;0.50;1.00;;;;;;4378536;28;658735;-71
2022/03/05 00:21:19;;;;;;;38.37;17.43;;;0.50;1.00;;;;;;4397109;28;658628;-71
2022/03/05 00:24:08;;;;;;;41.17;17.50;;;0.60;1.00;;;;;;4378264;28;659301;-71
2022/03/05 00:26:57;;;;;;;40.53;17.40;;;0.50;1.00;;;;;;4378025;28;658411;-71
2022/03/05 00:29:48;;;;;;;42.77;17.37;;;0.60;1.00;;;;;;4390059;28;658326;-71
2022/03/05 00:32:38;;;;;;;40.07;17.37;;;0.60;1.00;;;;;;4355566;28;658526;-71
2022/03/05 00:35:31;;;;;;;42.73;17.90;;;0.60;1.00;;;;;;4384523;28;658832;-71
2022/03/05 00:38:21;;;;;;;46.23;18.10;;;0.60;99.90;;;;;;4374023;28;658991;-71
2022/03/05 00:41:12;;;;;;;40.33;17.60;;;0.50;99.90;;;;;;4372994;28;660328;-71
2022/03/05 00:44:07;;;;;;;39.80;17.53;;;0.60;23.10;;;;;;4372527;28;659547;-71
2022/03/05 00:46:56;;;;;;;39.23;17.03;;;0.50;1.00;;;;;;4372537;28;659830;-71
2022/03/05 00:49:44;;;;;;;49.23;18.73;;;0.50;1.00;;;;;;4373748;28;658752;-71
2022/03/05 00:52:34;;;;;;;44.53;18.63;;;0.50;1.00;;;;;;4377951;28;658836;-71
2022/03/05 00:55:22;;;;;;;46.57;19.03;;;0.50;1.00;;;;;;4377431;28;658529;-70
2022/03/05 00:58:14;;;;;;;44.43;18.13;;;0.50;99.90;;;;;;4391823;28;658653;-71
2022/03/05 01:01:03;;;;;;;47.80;17.90;;;0.50;99.90;;;;;;4372392;28;660970;-71
2022/03/05 01:03:51;;;;;;;46.73;18.40;;;0.50;99.90;;;;;;4376215;28;659552;-71
2022/03/05 01:06:40;;;;;;;46.80;19.87;;;0.50;1.00;;;;;;4395331;28;660275;-71
2022/03/05 01:09:29;;;;;;;49.57;19.97;;;0.50;1.00;;;;;;4373414;28;659223;-71
2022/03/05 01:12:17;;;;;;;50.85;19.50;;;0.50;1.00;;;;;;4377504;28;658616;-70
2022/03/05 01:15:16;;;;;;;44.83;19.07;;;0.50;1.00;;;;;;4393535;28;658882;-71
2022/03/05 01:18:08;;;;;;;44.30;19.33;;;0.50;99.90;;;;;;4373362;28;658601;-71
2022/03/05 01:20:55;;;;;;;45.53;18.50;;;0.50;99.90;;;;;;4353375;28;660213;-71
2022/03/05 01:23:43;;;;;;;49.50;19.93;;;0.50;99.90;;;;;;4396847;28;660369;-71
2022/03/05 01:26:31;;;;;;;57.53;21.97;;;0.50;99.90;;;;;;4375943;28;659458;-71
2022/03/05 01:29:18;;;;;;;47.57;19.70;;;0.50;99.90;;;;;;4390675;28;661167;-71
2022/03/05 01:32:08;;;;;;;46.17;19.03;;;0.50;99.90;;;;;;4376148;28;659861;-71
2022/03/05 01:34:56;;;;;;;42.80;18.10;;;0.50;99.90;;;;;;4375792;28;660023;-70
2022/03/05 01:37:43;;;;;;;46.00;19.60;;;0.50;1.00;;;;;;4398697;28;661063;-71
2022/03/05 01:40:32;;;;;;;78.67;24.07;;;0.50;1.00;;;;;;4377304;28;659618;-71
2022/03/05 01:43:19;;;;;;;54.37;21.00;;;0.50;99.90;;;;;;4395460;28;658139;-71
2022/03/05 01:46:07;;;;;;;45.93;18.70;;;0.50;99.90;;;;;;4376160;28;659602;-71
2022/03/05 01:48:56;;;;;;;47.47;18.87;;;0.50;99.90;;;;;;4394195;28;659799;-71
2022/03/05 01:51:43;;;;;;;43.17;18.90;;;0.50;99.90;;;;;;4371906;28;660408;-71
2022/03/05 01:54:31;;;;;;;39.57;17.70;;;0.50;99.90;;;;;;4375795;28;659700;-71
2022/03/05 01:57:19;;;;;;;40.50;17.38;;;0.50;99.90;;;;;;4393461;28;659764;-70
2022/03/05 02:00:09;;;;;;;46.03;18.97;;;0.50;1.00;;;;;;4376014;28;660266;-71
2022/03/05 02:02:56;;;;;;;44.07;18.60;;;0.50;1.00;;;;;;4376121;28;658502;-71
2022/03/05 02:05:48;;;;;;;42.93;17.83;;;0.50;1.00;;;;;;4396083;28;659630;-71
2022/03/05 02:08:36;;;;;;;45.53;20.00;;;0.50;1.00;;;;;;4351464;28;659192;-71
2022/03/05 02:11:24;;;;;;;44.87;18.07;;;0.40;1.00;;;;;;4395646;28;659449;-71
2022/03/05 02:14:11;;;;;;;47.10;18.70;;;0.40;1.00;;;;;;4376978;28;659199;-71
2022/03/05 02:16:58;;;;;;;44.10;18.80;;;0.40;1.00;;;;;;4395727;28;659392;-70
2022/03/05 02:19:46;;;;;;;50.80;19.50;;;0.40;1.00;;;;;;4377123;28;658637;-70
2022/03/05 02:22:35;;;;;;;48.53;19.63;;;0.40;1.00;;;;;;4396275;28;659746;-71
2022/03/05 02:25:22;;;;;;;46.67;19.47;;;0.40;1.00;;;;;;4372735;28;659686;-71
2022/03/05 02:28:11;;;;;;;51.53;20.40;;;0.40;1.00;;;;;;4395267;28;658841;-71
2022/03/05 02:30:58;;;;;;;47.03;19.90;;;0.40;1.00;;;;;;4395670;28;660165;-71
2022/03/05 02:33:46;;;;;;;43.40;18.10;;;0.40;1.00;;;;;;4376962;28;659157;-70
2022/03/05 02:36:33;;;;;;;50.20;20.17;;;0.50;1.00;;;;;;4397848;28;659424;-71
2022/03/05 02:39:28;;;;;;;46.93;19.37;;;0.50;99.90;;;;;;4378948;28;658655;-71
2022/03/05 02:42:21;;;;;;;50.23;20.23;;;0.50;99.90;;;;;;4353032;28;660625;-71
2022/03/05 02:45:11;;;;;;;44.90;17.67;;;0.50;99.90;;;;;;4378508;28;660991;-71
2022/03/05 02:47:59;;;;;;;45.38;18.98;;;0.50;1.00;;;;;;4369938;28;660901;-70
2022/03/05 02:50:57;;;;;;;44.23;18.63;;;0.40;1.00;;;;;;4379871;28;659396;-71
2022/03/05 02:53:46;;;;;;;52.27;18.90;;;0.40;1.00;;;;;;4375413;28;658859;-71
2022/03/05 02:56:37;;;;;;;46.07;19.43;;;0.40;1.00;;;;;;4375804;28;659262;-71
2022/03/05 02:59:31;;;;;;;51.55;18.90;;;0.40;1.00;;;;;;4375661;28;658947;-71
2022/03/05 03:02:19;;;;;;;42.33;16.97;;;0.40;1.00;;;;;;4375724;28;660359;-71
2022/03/05 03:05:09;;;;;;;43.13;18.13;;;0.40;1.00;;;;;;4379548;28;658822;-71
2022/03/05 03:08:01;;;;;;;44.60;18.43;;;0.40;99.90;;;;;;4376992;28;658295;-71
2022/03/05 03:10:48;;;;;;;46.20;18.50;;;0.40;99.90;;;;;;4368077;28;660500;-71
2022/03/05 03:13:38;;;;;;;43.00;18.27;;;0.40;99.90;;;;;;4378232;28;660159;-71
2022/03/05 03:16:26;;;;;;;44.53;17.40;;;0.40;40.90;;;;;;4380433;28;659579;-71
2022/03/05 03:19:13;;;;;;;41.80;17.23;;;0.30;1.00;;;;;;4398202;28;660750;-71
2022/03/05 03:22:01;;;;;;;44.73;18.07;;;0.30;1.00;;;;;;4379167;28;658896;-71
2022/03/05 03:24:48;;;;;;;43.90;18.03;;;0.30;1.00;;;;;;4399706;28;659339;-70
2022/03/05 03:27:36;;;;;;;39.80;17.57;;;0.40;1.00;;;;;;4379340;28;658611;-71
2022/03/05 03:30:29;;;;;;;44.80;17.83;;;0.40;1.00;;;;;;4397839;28;659512;-71
2022/03/05 03:33:19;;;;;;;45.77;18.67;;;0.40;1.00;;;;;;4356694;28;659134;-71
2022/03/05 03:36:07;;;;;;;39.78;17.13;;;0.40;1.00;;;;;;4375645;28;658746;-71
2022/03/05 03:39:01;;;;;;;47.20;18.97;;;0.40;1.00;;;;;;4392352;28;658822;-71
2022/03/05 03:41:51;;;;;;;46.80;19.33;;;0.40;1.00;;;;;;4375341;28;659739;-71
2022/03/05 03:44:40;;;;;;;41.50;18.47;;;0.40;1.00;;;;;;4374952;28;658921;-71
2022/03/05 03:47:30;;;;;;;41.75;18.63;;;0.40;1.00;;;;;;4379145;28;659075;-71
2022/03/05 03:50:20;;;;;;;51.73;18.93;;;0.40;1.00;;;;;;4374813;28;659121;-71
2022/03/05 03:53:09;;;;;;;42.17;18.07;;;0.40;1.00;;;;;;4376449;28;659739;-71
2022/03/05 03:55:57;;;;;;;43.60;19.20;;;0.40;99.90;;;;;;4372940;28;658260;-70
2022/03/05 03:58:45;;;;;;;41.83;18.10;;;0.40;99.90;;;;;;4390653;28;660099;-71
2022/03/05 04:01:33;;;;;;;45.57;19.87;;;0.50;99.90;;;;;;4396309;28;660683;-71
2022/03/05 04:04:22;;;;;;;44.80;18.30;;;0.50;99.90;;;;;;4382234;28;659771;-70
2022/03/05 04:10:14;;;;;;;38.10;16.97;;;0.40;1.00;;;;;;4374311;28;659372;-71
2022/03/05 04:13:08;;;;;;;37.47;16.77;;;0.40;1.00;;;;;;4379530;28;658629;-70
2022/03/05 04:16:01;;;;;;;37.37;16.07;;;0.40;1.00;;;;;;4379491;28;658997;-71
2022/03/05 04:18:48;;;;;;;39.30;16.03;;;0.40;1.00;;;;;;4375488;28;659687;-71
2022/03/05 04:21:43;;;;;;;32.27;14.97;;;0.30;1.00;;;;;;4378048;28;658929;-71
2022/03/05 04:24:35;;;;;;;40.67;16.57;;;0.40;1.00;;;;;;4354164;28;658917;-71
2022/03/05 04:27:23;;;;;;;32.90;15.13;;;0.40;1.00;;;;;;4374397;28;659626;-71
2022/03/05 04:30:18;;;;;;;34.80;15.40;;;0.30;1.00;;;;;;4378563;28;659164;-71
2022/03/05 04:33:11;;;;;;;38.38;15.93;;;0.30;1.00;;;;;;4356202;28;658393;-71
2022/03/05 04:35:59;;;;;;;34.80;15.27;;;0.30;99.90;;;;;;4374921;28;659176;-71
2022/03/05 04:38:50;;;;;;;35.13;14.93;;;0.30;99.90;;;;;;4376970;28;660400;-71
2022/03/05 04:41:39;;;;;;;35.20;15.33;;;0.20;99.90;;;;;;4377021;28;660129;-71
2022/03/05 04:44:26;;;;;;;32.97;14.10;;;0.20;99.90;;;;;;4376769;28;660245;-71
2022/03/05 04:47:14;;;;;;;32.33;14.20;;;0.20;81.80;;;;;;4395236;28;660483;-71
2022/03/05 04:50:01;;;;;;;36.47;15.50;;;0.10;72.20;;;;;;4377603;28;660249;-71
2022/03/05 04:52:52;;;;;;;36.73;14.97;;;0.00;73.50;;;;;;4395114;28;660074;-70
2022/03/05 04:55:44;;;;;;;37.23;14.63;;;0.00;90.10;;;;;;4372150;28;659751;-71
2022/03/05 04:58:35;;;;;;;39.53;15.77;;;0.00;21.40;;;;;;4366878;28;659521;-71
2022/03/05 05:01:24;;;;;;;39.23;16.00;;;0.00;1.00;;;;;;4376047;28;660193;-70
2022/03/05 05:04:15;;;;;;;36.07;14.17;;;0.00;20.30;;;;;;4377845;28;658645;-71
2022/03/05 05:07:03;;;;;;;32.08;14.57;;;-0.10;5.50;;;;;;4363485;28;660440;-71
2022/03/05 05:09:53;;;;;;;39.33;15.43;;;-0.10;1.00;;;;;;4374193;28;659879;-71
2022/03/05 05:12:44;;;;;;;34.53;15.07;;;-0.10;1.00;;;;;;4375063;28;659586;-71
2022/03/05 05:15:33;;;;;;;36.60;15.50;;;-0.10;1.00;;;;;;4376130;28;659521;-71
2022/03/05 05:18:22;;;;;;;35.53;14.97;;;-0.10;1.00;;;;;;4375871;28;660598;-70
2022/03/05 05:21:14;;;;;;;38.60;14.97;;;-0.10;26.10;;;;;;4394776;28;660033;-70
2022/03/05 05:24:01;;;;;;;35.00;14.87;;;-0.10;6.20;;;;;;4352439;28;661010;-71
2022/03/05 05:27:07;;;;;;;32.73;15.20;;;-0.20;1.00;;;;;;4394936;28;660098;-70
2022/03/05 05:29:57;;;;;;;34.17;15.40;;;-0.20;1.00;;;;;;4369405;28;659486;-70
2022/03/05 05:32:44;;;;;;;36.27;15.83;;;-0.30;1.00;;;;;;4394905;28;659432;-71
2022/03/05 05:35:32;;;;;;;38.17;15.10;;;-0.30;1.00;;;;;;4375923;28;659854;-71
2022/03/05 05:38:19;;;;;;;37.00;16.03;;;-0.30;1.00;;;;;;4394678;28;659820;-71
2022/03/05 05:41:07;;;;;;;36.87;15.17;;;-0.30;1.00;;;;;;4375740;28;660797;-70
2022/03/05 05:43:55;;;;;;;30.93;14.53;;;-0.30;1.00;;;;;;4387935;28;659660;-71
2022/03/05 05:46:44;;;;;;;35.77;15.93;;;-0.30;1.00;;;;;;4394708;28;660868;-71
2022/03/05 05:49:32;;;;;;;36.77;15.70;;;-0.30;1.00;;;;;;4375852;28;659812;-71
2022/03/05 05:52:19;;;;;;;36.43;16.27;;;-0.30;1.00;;;;;;4394780;28;659988;-70
2022/03/05 05:55:07;;;;;;;40.93;15.77;;;-0.30;1.00;;;;;;4371620;28;659965;-71
2022/03/05 05:57:55;;;;;;;39.87;17.40;;;-0.30;1.00;;;;;;4390865;28;659571;-71
2022/03/05 06:00:43;;;;;;;35.40;16.07;;;-0.30;1.00;;;;;;4394144;28;660718;-71
2022/03/05 06:03:40;;;;;;;39.88;16.77;;;-0.20;1.00;;;;;;4354322;28;659914;-71
2022/03/05 06:06:33;;;;;;;38.27;15.83;;;-0.20;1.00;;;;;;4345074;28;660183;-70
2022/03/05 06:09:20;;;;;;;36.50;15.50;;;-0.20;1.00;;;;;;4326013;28;659907;-71
2022/03/05 06:12:08;;;;;;;34.50;14.67;;;-0.10;1.00;;;;;;4370448;28;660033;-71
2022/03/05 06:14:56;;;;;;;32.00;14.73;;;0.00;1.00;;;;;;4362888;28;660031;-71
2022/03/05 06:17:43;;;;;;;36.87;14.57;;;0.00;99.90;;;;;;4398927;28;660106;-71
2022/03/05 06:20:32;;;;;;;37.33;14.87;;;0.10;99.90;;;;;;4378978;28;659549;-71
2022/03/05 06:23:20;;;;;;;37.20;14.77;;;0.10;99.90;;;;;;4392434;28;660248;-71
2022/03/05 06:26:08;;;;;;;29.87;14.40;;;0.20;99.90;;;;;;4401847;28;660057;-71
2022/03/05 06:28:56;;;;;;;38.70;15.13;;;0.30;99.90;;;;;;4379145;28;659756;-71
2022/03/05 06:31:43;;;;;;;29.73;13.93;;;0.30;52.10;;;;;;4397914;28;661467;-71
2022/03/05 06:34:31;;;;;;;30.73;14.00;;;0.40;1.00;;;;;;4378798;28;659954;-71
2022/03/05 06:37:20;;;;;;;29.43;14.17;;;0.40;1.00;;;;;;4399020;28;659094;-71
2022/03/05 06:40:10;;;;;;;37.20;15.53;;;0.50;1.00;;;;;;4374731;28;659407;-71
2022/03/05 06:42:57;;;;;;;35.30;15.03;;;0.60;1.00;;;;;;4375765;28;659604;-71
2022/03/05 06:45:45;;;;;;;38.80;15.57;;;0.70;1.00;;;;;;4398786;28;658591;-71
2022/03/05 06:48:32;;;;;;;32.13;14.27;;;0.70;1.00;;;;;;4375774;28;660253;-71
2022/03/05 06:51:20;;;;;;;27.93;12.30;;;0.80;99.90;;;;;;4389551;28;658681;-71
2022/03/05 06:54:09;;;;;;;27.63;11.90;;;0.80;99.90;;;;;;4396676;28;661341;-71
2022/03/05 06:56:57;;;;;;;35.73;11.80;;;0.80;99.90;;;;;;4372108;28;659615;-71
2022/03/05 06:59:44;;;;;;;26.27;11.27;;;0.80;99.90;;;;;;4397416;28;660009;-71
2022/03/05 07:02:32;;;;;;;25.57;11.67;;;0.80;99.90;;;;;;4378426;28;660593;-71
2022/03/05 07:05:19;;;;;;;24.65;11.43;;;0.80;99.90;;;;;;4397354;28;660736;-71
2022/03/05 07:08:07;;;;;;;29.23;11.30;;;0.90;99.90;;;;;;4378702;28;660795;-71
2022/03/05 07:11:01;;;;;;;25.38;11.32;;;1.00;99.90;;;;;;4396899;28;660363;-71
2022/03/05 07:13:48;;;;;;;26.20;11.83;;;1.10;99.90;;;;;;4374451;28;660003;-71
2022/03/05 07:16:36;;;;;;;30.73;13.67;;;1.20;99.90;;;;;;4378213;28;659971;-71
2022/03/05 07:19:23;;;;;;;32.00;13.17;;;1.40;92.60;;;;;;4399643;28;660433;-71
2022/03/05 07:22:11;;;;;;;26.43;12.30;;;1.40;13.30;;;;;;4378382;28;659988;-71
2022/03/05 07:25:06;;;;;;;24.53;11.57;;;1.40;1.00;;;;;;4397714;28;660193;-71
2022/03/05 07:27:55;;;;;;;28.63;12.70;;;1.50;1.00;;;;;;4375374;28;659072;-71
2022/03/05 07:30:43;;;;;;;26.40;12.10;;;1.60;1.00;;;;;;4379174;28;659809;-71
2022/03/05 07:33:31;;;;;;;31.90;13.70;;;1.70;1.00;;;;;;4387360;28;658455;-71
2022/03/05 07:36:19;;;;;;;47.20;16.90;;;1.80;1.00;;;;;;4401282;28;658993;-71
2022/03/05 07:39:07;;;;;;;33.27;13.63;;;1.90;1.00;;;;;;4379333;28;658599;-71
2022/03/05 07:41:55;;;;;;;31.23;13.13;;;2.10;1.00;;;;;;4394459;28;658540;-71
2022/03/05 07:44:44;;;;;;;32.03;12.07;;;2.20;1.00;;;;;;4397873;28;659517;-71
2022/03/05 07:47:32;;;;;;;92.63;30.13;;;2.30;1.00;;;;;;4378893;28;658690;-71
2022/03/05 07:50:19;;;;;;;25.90;12.70;;;2.40;1.00;;;;;;4397653;28;658174;-71
2022/03/05 07:53:07;;;;;;;21.30;9.83;;;2.50;1.00;;;;;;4378973;28;658639;-71
2022/03/05 07:55:55;;;;;;;33.13;13.23;;;2.60;1.00;;;;;;4398849;28;657320;-71
2022/03/05 07:58:48;;;;;;;24.63;11.13;;;2.70;1.00;;;;;;4378515;28;658743;-71
2022/03/05 08:01:38;;;;;;;36.53;13.33;;;2.80;1.00;;;;;;4362886;28;658754;-71
2022/03/05 08:04:26;;;;;;;85.23;22.97;;;2.80;1.00;;;;;;4378229;28;659193;-71
2022/03/05 08:07:13;;;;;;;19.80;9.00;;;3.00;1.00;;;;;;4399381;28;659012;-71
2022/03/05 08:10:01;;;;;;;21.93;9.90;;;3.30;1.00;;;;;;4379633;28;658111;-71
2022/03/05 08:12:48;;;;;;;28.97;12.67;;;3.50;1.00;;;;;;4396964;28;658827;-71
2022/03/05 08:15:36;;;;;;;17.33;7.80;;;3.60;1.00;;;;;;4378605;28;658765;-71
2022/03/05 08:18:25;;;;;;;13.57;6.38;;;3.50;1.00;;;;;;4398254;28;659176;-71
2022/03/05 08:21:12;;;;;;;15.13;7.67;;;3.50;1.00;;;;;;4380090;28;657859;-71
2022/03/05 08:24:00;;;;;;;14.83;7.07;;;3.50;1.00;;;;;;4398327;28;657804;-71
2022/03/05 08:26:48;;;;;;;18.40;8.07;;;3.50;1.00;;;;;;4398419;28;659295;-70
2022/03/05 08:29:36;;;;;;;11.97;5.47;;;3.60;1.00;;;;;;4379364;28;657987;-70
2022/03/05 08:32:23;;;;;;;11.33;5.60;;;3.50;1.00;;;;;;4402748;28;658257;-71
2022/03/05 08:35:13;;;;;;;26.37;8.40;;;3.50;1.00;;;;;;4377864;28;658083;-71
2022/03/05 08:38:00;;;;;;;25.10;7.33;;;3.50;1.00;;;;;;4380659;28;658326;-71
2022/03/05 08:40:48;;;;;;;89.57;13.10;;;3.70;1.00;;;;;;4398042;28;658645;-71
2022/03/05 08:43:36;;;;;;;25.10;5.90;;;3.80;1.00;;;;;;4382157;28;658694;-71
2022/03/05 08:46:24;;;;;;;53.75;7.65;;;4.00;1.00;;;;;;4398140;28;658958;-71
2022/03/05 08:49:11;;;;;;;130.67;17.27;;;4.10;1.00;;;;;;4378531;28;658076;-71
2022/03/05 08:52:00;;;;;;;53.78;11.15;;;4.20;1.00;;;;;;4394641;28;660445;-71
2022/03/05 08:54:48;;;;;;;34.00;9.30;;;4.00;1.00;;;;;;4349282;28;659144;-71
2022/03/05 08:57:36;;;;;;;7.40;3.27;;;4.00;1.00;;;;;;4388055;28;658342;-71
2022/03/05 09:00:23;;;;;;;13.67;5.10;;;4.00;1.00;;;;;;4402062;28;657570;-71
2022/03/05 09:03:11;;;;;;;20.13;7.27;;;4.00;1.00;;;;;;4378103;28;657443;-71
2022/03/05 09:05:59;;;;;;;11.60;5.00;;;4.00;1.00;;;;;;4398881;28;658091;-71
2022/03/05 09:08:47;;;;;;;12.77;4.80;;;4.00;1.00;;;;;;4378780;28;658319;-71
2022/03/05 09:11:37;;;;;;;13.60;6.27;;;4.00;1.00;;;;;;4395539;28;657650;-71
2022/03/05 09:14:25;;;;;;;16.60;5.30;;;4.00;1.00;;;;;;4393790;28;658692;-71
2022/03/05 09:17:13;;;;;;;11.73;5.50;;;4.00;1.00;;;;;;4393853;28;658148;-71
2022/03/05 09:20:00;;;;;;;10.50;4.60;;;4.10;1.00;;;;;;4378145;28;657538;-71
2022/03/05 09:22:48;;;;;;;14.17;5.50;;;4.10;1.00;;;;;;4396623;28;658639;-71
2022/03/05 09:25:37;;;;;;;12.37;5.10;;;4.20;1.00;;;;;;4377879;28;657591;-71
2022/03/05 09:28:25;;;;;;;12.50;4.53;;;4.50;1.00;;;;;;4396344;28;657998;-71
2022/03/05 09:31:12;;;;;;;14.97;6.87;;;4.60;1.00;;;;;;4370899;28;659168;-71
2022/03/05 09:34:03;;;;;;;19.13;7.63;;;4.70;1.00;;;;;;4397106;28;657900;-71
2022/03/05 09:36:50;;;;;;;10.17;3.90;;;4.90;1.00;;;;;;4361729;28;657866;-71
2022/03/05 09:39:38;;;;;;;18.73;6.30;;;4.90;1.00;;;;;;4397287;28;659054;-71
2022/03/05 09:42:27;;;;;;;30.00;11.07;;;4.80;1.00;;;;;;4378343;28;657261;-71
2022/03/05 09:45:15;;;;;;;9.30;4.00;;;4.90;1.00;;;;;;4395785;28;659453;-71
2022/03/05 09:48:02;;;;;;;19.77;7.32;;;4.90;1.00;;;;;;4379772;28;657706;-71
2022/03/05 09:50:50;;;;;;;29.67;10.87;;;5.00;1.00;;;;;;4388557;28;657503;-71
2022/03/05 09:53:38;;;;;;;11.53;5.07;;;4.80;1.00;;;;;;4394445;28;659667;-71
2022/03/05 09:56:28;;;;;;;14.60;6.40;;;4.60;1.00;;;;;;4360145;28;657360;-71
2022/03/05 09:59:17;;;;;;;33.73;12.93;;;4.50;1.00;;;;;;4360154;28;657678;-71
2022/03/05 10:02:05;;;;;;;27.53;11.37;;;4.30;1.00;;;;;;4378260;28;658407;-71
2022/03/05 10:04:53;;;;;;;32.63;11.73;;;4.20;1.00;;;;;;4355966;28;660088;-71
2022/03/05 10:07:41;;;;;;;20.20;7.70;;;4.10;1.00;;;;;;4362058;28;658771;-71
2022/03/05 10:10:28;;;;;;;19.97;8.00;;;4.20;1.00;;;;;;4378312;28;659046;-71
2022/03/05 10:13:23;;;;;;;13.87;5.80;;;4.10;1.00;;;;;;4343767;28;657715;-71
2022/03/05 10:16:25;;;;;;;17.40;7.63;;;4.20;1.00;;;;;;4342718;28;657616;-71
2022/03/05 10:19:16;;;;;;;25.73;9.43;;;4.40;1.00;;;;;;4352744;28;658628;-70
2022/03/05 10:22:05;;;;;;;14.73;6.13;;;4.50;1.00;;;;;;4355220;28;658596;-71
2022/03/05 10:24:56;;;;;;;15.60;6.70;;;4.80;1.00;;;;;;4356204;28;659363;-71
2022/03/05 10:27:44;;;;;;;20.42;8.57;;;5.00;1.00;;;;;;4355768;28;659990;-71
2022/03/05 10:30:31;;;;;;;14.03;6.30;;;5.00;1.00;;;;;;4359949;28;657720;-71
2022/03/05 10:33:28;;;;;;;10.67;4.87;;;4.90;1.00;;;;;;4378312;28;657318;-71
2022/03/05 10:36:19;;;;;;;14.33;6.10;;;4.70;1.00;;;;;;4337273;28;657815;-71
2022/03/05 10:39:08;;;;;;;11.07;5.50;;;4.90;1.00;;;;;;4355979;28;658179;-71
2022/03/05 10:41:56;;;;;;;14.18;5.63;;;5.30;1.00;;;;;;4359350;28;657499;-71
2022/03/05 10:44:43;;;;;;;9.85;5.15;;;6.20;1.00;;;;;;4379353;28;658044;-71
2022/03/05 10:47:37;;;;;;;8.30;4.27;;;7.10;1.00;;;;;;4360940;28;657543;-71
2022/03/05 10:50:28;;;;;;;14.20;6.22;;;7.60;1.00;;;;;;4352293;28;656567;-71
2022/03/05 10:53:16;;;;;;;19.40;8.43;;;7.40;1.00;;;;;;4359831;28;657724;-71
2022/03/05 10:56:25;;;;;;;10.07;5.20;;;7.00;1.00;;;;;;4399208;28;659189;-71
2022/03/05 10:59:14;;;;;;;11.03;4.70;;;6.30;1.00;;;;;;4376440;28;657594;-71
2022/03/05 11:02:02;;;;;;;10.13;4.90;;;5.90;1.00;;;;;;4376489;28;658163;-71
2022/03/05 11:04:50;;;;;;;15.60;6.63;;;5.60;1.00;;;;;;4399249;28;658238;-71
2022/03/05 11:07:39;;;;;;;15.50;7.30;;;5.40;1.00;;;;;;4378727;28;658504;-71
2022/03/05 11:10:29;;;;;;;18.13;8.20;;;5.00;1.00;;;;;;4378376;28;657585;-71
2022/03/05 11:13:16;;;;;;;17.93;7.27;;;4.80;1.00;;;;;;4380804;28;658237;-71
2022/03/05 11:16:04;;;;;;;17.50;8.07;;;4.50;1.00;;;;;;4399221;28;658230;-71
2022/03/05 11:18:52;;;;;;;27.90;10.40;;;4.40;1.00;;;;;;4376864;28;657539;-71
2022/03/05 11:21:39;;;;;;;14.20;6.43;;;4.20;1.00;;;;;;4398140;28;658368;-71
2022/03/05 11:24:28;;;;;;;17.10;7.00;;;4.00;1.00;;;;;;4380732;28;658021;-71
2022/03/05 11:27:16;;;;;;;10.23;5.40;;;3.90;1.00;;;;;;4380467;28;657648;-71
2022/03/05 11:30:05;;;;;;;7.60;3.73;;;3.80;1.00;;;;;;4399166;28;657615;-71
2022/03/05 11:32:53;;;;;;;9.50;4.13;;;3.60;1.00;;;;;;4375938;28;657673;-71
2022/03/05 11:35:43;;;;;;;16.10;5.87;;;3.60;1.00;;;;;;4381577;28;656512;-71
2022/03/05 11:38:32;;;;;;;11.53;5.33;;;3.60;1.00;;;;;;4382427;28;657591;-71
2022/03/05 11:41:29;;;;;;;15.27;5.80;;;3.70;1.00;;;;;;4398890;28;657893;-71
2022/03/05 11:44:17;;;;;;;12.00;5.23;;;3.70;1.00;;;;;;4357407;28;658438;-71
2022/03/05 11:47:26;;;;;;;10.63;5.40;;;3.60;1.00;;;;;;4396451;28;658391;-71
2022/03/05 11:50:16;;;;;;;18.70;7.47;;;3.60;1.00;;;;;;4375937;28;658274;-71
2022/03/05 11:53:08;;;;;;;29.77;10.80;;;3.50;1.00;;;;;;4376414;28;657934;-71
2022/03/05 11:55:55;;;;;;;13.10;5.70;;;3.70;1.00;;;;;;4353253;28;658641;-71
2022/03/05 11:58:44;;;;;;;10.67;4.83;;;4.00;1.00;;;;;;4398987;28;657964;-71
2022/03/05 12:01:39;;;;;;;9.27;4.20;;;4.70;1.00;;;;;;4380035;28;657598;-71
2022/03/05 12:04:28;;;;;;;9.90;4.78;;;5.70;1.00;;;;;;4354720;28;658223;-72
2022/03/05 12:07:17;;;;;;;15.67;6.93;;;6.70;1.00;;;;;;4384779;28;656809;-71
2022/03/05 12:10:12;;;;;;;14.77;6.07;;;7.60;1.00;;;;;;4392129;28;658335;-71
2022/03/05 12:13:01;;;;;;;11.63;4.33;;;8.10;1.00;;;;;;4375755;28;657694;-71
2022/03/05 12:15:50;;;;;;;6.37;4.13;;;8.30;1.00;;;;;;4379629;28;658953;-70
2022/03/05 12:18:37;;;;;;;7.77;3.90;;;7.80;1.00;;;;;;4376823;28;657646;-71
2022/03/05 12:21:29;;;;;;;18.10;8.27;;;7.20;1.00;;;;;;4399321;28;656962;-71
2022/03/05 12:24:17;;;;;;;14.23;5.60;;;6.70;1.00;;;;;;4379494;28;658148;-71
2022/03/05 12:27:05;;;;;;;7.83;4.40;;;6.50;1.00;;;;;;4396875;28;657991;-70
2022/03/05 12:29:53;;;;;;;10.33;4.77;;;6.20;1.00;;;;;;4380069;28;657199;-71
2022/03/05 12:32:45;;;;;;;10.53;4.90;;;5.80;1.00;;;;;;4372551;28;657871;-70
2022/03/05 12:35:33;;;;;;;13.03;4.30;;;5.50;1.00;;;;;;4375572;28;659114;-71
2022/03/05 12:38:21;;;;;;;8.30;4.20;;;5.00;1.00;;;;;;4390732;28;657601;-70
2022/03/05 12:41:09;;;;;;;6.60;3.90;;;4.70;1.00;;;;;;4399586;28;656654;-71
2022/03/05 12:43:57;;;;;;;11.13;4.93;;;4.90;1.00;;;;;;4380266;28;656350;-71
2022/03/05 12:46:44;;;;;;;9.97;5.10;;;5.00;1.00;;;;;;4391120;28;657830;-71
2022/03/05 12:49:33;;;;;;;13.57;6.07;;;4.90;1.00;;;;;;4380357;28;657105;-70
2022/03/05 12:52:21;;;;;;;8.97;4.00;;;5.00;1.00;;;;;;4378937;28;658095;-71
2022/03/05 12:55:09;;;;;;;16.03;5.93;;;5.20;1.00;;;;;;4398867;28;656770;-70
2022/03/05 12:58:04;;;;;;;11.03;4.03;;;5.90;1.00;;;;;;4379065;28;657614;-71
2022/03/05 13:00:52;;;;;;;10.83;4.87;;;6.50;1.00;;;;;;4379188;28;657503;-71
2022/03/05 13:03:41;;;;;;;9.93;3.70;;;6.90;1.00;;;;;;4397329;28;657495;-71
2022/03/05 13:06:29;;;;;;;7.97;4.43;;;6.90;1.00;;;;;;4399132;28;657062;-71
2022/03/05 13:09:17;;;;;;;8.30;4.40;;;7.10;1.00;;;;;;4380080;28;657286;-71
2022/03/05 13:12:05;;;;;;;6.67;3.60;;;6.80;1.00;;;;;;4399273;28;656295;-71
2022/03/05 13:14:53;;;;;;;8.77;4.83;;;6.70;1.00;;;;;;4376088;28;657532;-71
2022/03/05 13:17:46;;;;;;;7.80;3.90;;;6.60;1.00;;;;;;4391544;28;656653;-71
2022/03/05 13:20:34;;;;;;;16.87;8.67;;;6.40;1.00;;;;;;4376224;28;657318;-71
2022/03/05 13:23:23;;;;;;;9.43;4.67;;;6.40;1.00;;;;;;4377561;28;657553;-71
2022/03/05 13:26:10;;;;;;;12.20;5.57;;;6.70;1.00;;;;;;4380345;28;656786;-71
2022/03/05 13:28:58;;;;;;;9.50;4.33;;;6.90;1.00;;;;;;4392738;28;658445;-70
2022/03/05 13:31:46;;;;;;;5.90;3.50;;;7.90;1.00;;;;;;4380058;28;657300;-71
2022/03/05 13:34:33;;;;;;;6.57;3.40;;;8.80;1.00;;;;;;4398525;28;658526;-71
2022/03/05 13:37:21;;;;;;;7.83;3.70;;;9.80;1.00;;;;;;4379563;28;656775;-71
2022/03/05 13:40:12;;;;;;;5.43;2.90;;;9.70;1.00;;;;;;4402193;28;657714;-71
2022/03/05 13:42:59;;;;;;;22.93;9.00;;;9.10;1.00;;;;;;4375821;28;656764;-71
2022/03/05 13:45:47;;;;;;;10.43;5.13;;;8.40;1.00;;;;;;4371943;28;657492;-71
2022/03/05 13:48:41;;;;;;;8.98;4.03;;;7.60;1.00;;;;;;4397259;28;658689;-71
2022/03/05 13:51:30;;;;;;;11.00;4.90;;;7.10;1.00;;;;;;4375775;28;656589;-71
2022/03/05 13:54:28;;;;;;;7.03;3.40;;;6.60;1.00;;;;;;4374418;28;657765;-70
2022/03/05 13:57:28;;;;;;;13.47;7.50;;;6.20;1.00;;;;;;4356985;28;656607;-71
2022/03/05 14:00:17;;;;;;;7.40;3.93;;;5.80;1.00;;;;;;4355965;28;657798;-70
2022/03/05 14:03:14;;;;;;;16.67;7.47;;;5.50;1.00;;;;;;4393860;28;656865;-71
2022/03/05 14:06:11;;;;;;;12.70;4.27;;;5.30;1.00;;;;;;4347667;28;658899;-71
2022/03/05 14:09:00;;;;;;;9.07;4.20;;;6.20;1.00;;;;;;4374216;28;658482;-71
2022/03/05 14:11:48;;;;;;;8.77;4.47;;;9.00;1.00;;;;;;4375640;28;657766;-71
2022/03/05 14:14:41;;;;;;;10.00;3.70;;;9.90;1.00;;;;;;4384267;28;656577;-71
2022/03/05 14:17:30;;;;;;;15.83;6.00;;;9.30;1.00;;;;;;4373241;28;657822;-71
2022/03/05 14:20:19;;;;;;;5.97;3.50;;;10.20;1.00;;;;;;4373834;28;659206;-70
2022/03/05 14:23:07;;;;;;;5.77;3.17;;;10.80;1.00;;;;;;4376495;28;657686;-71
2022/03/05 14:25:55;;;;;;;15.30;6.50;;;10.40;1.00;;;;;;4396797;28;657892;-71
2022/03/05 14:28:42;;;;;;;7.07;3.70;;;9.80;1.00;;;;;;4373028;28;659751;-71
2022/03/05 14:31:31;;;;;;;12.43;5.17;;;10.30;1.00;;;;;;4398137;28;656626;-71
2022/03/05 14:34:21;;;;;;;43.33;13.63;;;11.70;1.00;;;;;;4374523;28;658886;-71